Time;durP1;ratioP1;P1;durP2;ratioP2;P2;SDS_P1;SDS_P2;PMS_P1;PMS_P2;Temp;Humidity;BMP_temperature;BMP_pressure;BME280_temperature;BME280_humidity;BME280_pressure;Samples;Min_cycle;Max_cycle;Signal;HPM_P1;HPM_P2
2023/09/26 00:00:59;;;;;;;2.92;2.40;;;18.20;44.10;;;;;;4973423;28;20172;-52
2023/09/26 00:03:27;;;;;;;2.30;1.80;;;18.20;44.20;;;;;;4973369;28;20219;-53
2023/09/26 00:05:54;;;;;;;3.25;1.98;;;18.20;44.20;;;;;;4973505;28;20172;-53
2023/09/26 00:08:20;;;;;;;2.50;1.80;;;18.20;44.60;;;;;;4973685;28;20315;-49
2023/09/26 00:10:46;;;;;;;3.10;2.50;;;18.10;44.60;;;;;;4973468;28;20639;-53
2023/09/26 00:13:13;;;;;;;3.72;2.13;;;18.10;44.60;;;;;;4973164;28;20168;-51
2023/09/26 00:15:39;;;;;;;3.30;2.38;;;18.10;44.40;;;;;;4973383;28;20307;-54
2023/09/26 00:18:06;;;;;;;1.98;1.75;;;18.10;44.30;;;;;;4973357;28;20188;-53
2023/09/26 00:20:35;;;;;;;2.35;1.75;;;18.00;44.40;;;;;;4973102;28;20190;-53
2023/09/26 00:23:01;;;;;;;2.83;1.67;;;17.90;44.70;;;;;;4973153;28;20166;-53
2023/09/26 00:25:27;;;;;;;2.10;1.70;;;17.90;44.70;;;;;;4973279;28;20172;-52
2023/09/26 00:27:53;;;;;;;2.57;2.20;;;17.80;44.60;;;;;;4973508;28;20439;-53
2023/09/26 00:30:24;;;;;;;2.00;1.60;;;17.80;44.50;;;;;;4973131;28;20407;-51
2023/09/26 00:32:50;;;;;;;3.03;1.60;;;17.80;44.40;;;;;;4972952;28;20304;-50
2023/09/26 00:35:17;;;;;;;3.80;1.90;;;17.80;44.50;;;;;;4973062;28;20175;-51
2023/09/26 00:37:49;;;;;;;2.95;1.88;;;17.70;44.80;;;;;;4973211;28;20423;-50
2023/09/26 00:40:16;;;;;;;2.20;2.00;;;17.70;45.00;;;;;;4973031;28;20644;-48
2023/09/26 00:42:50;;;;;;;1.73;1.45;;;17.60;44.80;;;;;;4973012;28;20180;-48
2023/09/26 00:45:16;;;;;;;2.70;2.15;;;17.60;44.70;;;;;;4973231;28;20179;-51
2023/09/26 00:47:43;;;;;;;3.67;2.53;;;17.60;44.90;;;;;;4972882;28;20194;-51
2023/09/26 00:50:13;;;;;;;4.38;2.40;;;17.60;44.60;;;;;;4973108;28;20251;-51
2023/09/26 00:52:45;;;;;;;3.35;2.15;;;17.60;44.60;;;;;;4972857;28;20216;-52
2023/09/26 00:55:14;;;;;;;3.00;1.75;;;17.60;44.50;;;;;;4972981;28;20222;-50
2023/09/26 00:57:40;;;;;;;2.92;2.35;;;17.60;44.70;;;;;;4972951;28;20275;-51
2023/09/26 01:00:12;;;;;;;3.20;2.78;;;17.60;44.60;;;;;;4972843;28;20168;-50
2023/09/26 01:02:39;;;;;;;3.47;2.22;;;17.60;44.50;;;;;;4972731;28;20701;-49
2023/09/26 01:05:05;;;;;;;1.90;1.67;;;17.50;44.40;;;;;;4972884;28;20219;-50
2023/09/26 01:07:33;;;;;;;2.10;1.90;;;17.60;44.40;;;;;;4972912;28;20277;-53
2023/09/26 01:10:00;;;;;;;2.90;2.00;;;17.60;44.40;;;;;;4975986;28;20271;-51
2023/09/26 01:12:28;;;;;;;3.60;1.70;;;17.60;44.50;;;;;;4976339;28;20199;-51
2023/09/26 01:14:55;;;;;;;3.33;1.88;;;17.60;44.70;;;;;;4976482;28;20651;-52
2023/09/26 01:17:21;;;;;;;3.75;2.20;;;17.50;44.70;;;;;;4976650;28;20203;-52
2023/09/26 01:19:47;;;;;;;2.95;1.85;;;17.50;44.80;;;;;;4976678;28;20180;-50
2023/09/26 01:22:18;;;;;;;1.90;1.70;;;17.50;44.90;;;;;;4976250;28;20179;-51
2023/09/26 01:24:44;;;;;;;2.13;1.88;;;17.60;44.80;;;;;;4976429;28;20266;-51
2023/09/26 01:27:10;;;;;;;2.65;1.83;;;17.60;44.60;;;;;;4976075;28;20223;-51
2023/09/26 01:29:36;;;;;;;2.28;1.67;;;17.60;44.80;;;;;;4976516;28;20264;-51
2023/09/26 01:32:02;;;;;;;3.10;1.57;;;17.60;44.50;;;;;;4975962;28;20298;-51
2023/09/26 01:34:28;;;;;;;3.38;2.20;;;17.60;44.50;;;;;;4976279;28;20251;-51
2023/09/26 01:36:54;;;;;;;2.03;1.80;;;17.60;44.60;;;;;;4976137;28;20280;-50
2023/09/26 01:39:20;;;;;;;4.20;2.53;;;17.60;44.70;;;;;;4976056;28;20439;-52
2023/09/26 01:41:46;;;;;;;3.33;2.10;;;17.60;44.70;;;;;;4975765;28;20218;-55
2023/09/26 01:44:12;;;;;;;3.83;1.77;;;17.60;44.80;;;;;;4975925;28;20936;-53
2023/09/26 01:46:38;;;;;;;2.20;2.00;;;17.50;44.90;;;;;;4976071;28;20179;-52
2023/09/26 01:49:04;;;;;;;1.80;1.53;;;17.60;44.90;;;;;;4976009;28;20183;-53
2023/09/26 01:51:30;;;;;;;2.10;1.93;;;17.50;44.80;;;;;;4975797;28;20486;-50
2023/09/26 01:53:55;;;;;;;2.10;1.87;;;17.50;44.80;;;;;;4975683;28;20483;-50
2023/09/26 01:56:21;;;;;;;2.40;2.03;;;17.50;44.60;;;;;;4975777;28;20404;-48
2023/09/26 01:58:47;;;;;;;2.47;1.80;;;17.50;44.70;;;;;;4975669;28;20243;-51
2023/09/26 02:01:13;;;;;;;2.25;1.50;;;17.40;44.60;;;;;;4975703;28;20164;-51
2023/09/26 02:03:39;;;;;;;3.05;2.10;;;17.40;45.00;;;;;;4975569;28;20180;-50
2023/09/26 02:06:05;;;;;;;3.10;1.83;;;17.30;45.00;;;;;;4975748;28;20186;-49
2023/09/26 02:08:31;;;;;;;2.50;1.33;;;17.30;45.10;;;;;;4975443;28;20562;-52
2023/09/26 02:10:56;;;;;;;2.50;2.20;;;17.30;45.00;;;;;;4975260;28;20239;-51
2023/09/26 02:13:22;;;;;;;2.73;2.30;;;17.30;45.00;;;;;;4975543;28;20666;-52
2023/09/26 02:15:48;;;;;;;2.10;1.33;;;17.30;44.70;;;;;;4975704;28;20593;-52
2023/09/26 02:18:14;;;;;;;2.43;1.50;;;17.30;44.60;;;;;;4975614;28;20687;-49
2023/09/26 02:20:39;;;;;;;2.90;1.87;;;17.30;45.30;;;;;;4974378;28;20651;-53
2023/09/26 02:23:05;;;;;;;2.40;2.10;;;17.20;44.60;;;;;;4975190;28;20510;-52
2023/09/26 02:25:31;;;;;;;10.33;2.63;;;17.20;44.80;;;;;;4975114;28;20237;-52
2023/09/26 02:27:57;;;;;;;2.90;1.90;;;17.20;44.80;;;;;;4975204;28;20668;-51
2023/09/26 02:30:25;;;;;;;2.17;1.63;;;17.20;45.00;;;;;;4975177;28;20168;-53
2023/09/26 02:32:51;;;;;;;2.42;1.50;;;17.20;45.20;;;;;;4973776;28;20230;-51
2023/09/26 02:35:19;;;;;;;2.53;2.17;;;17.10;45.00;;;;;;4975279;28;20172;-50
2023/09/26 02:37:45;;;;;;;3.92;1.65;;;17.20;45.10;;;;;;4974962;28;20530;-53
2023/09/26 02:40:12;;;;;;;3.35;2.08;;;17.20;45.00;;;;;;4974866;28;20238;-51
2023/09/26 02:42:45;;;;;;;3.10;1.83;;;17.20;44.80;;;;;;4974770;28;20235;-51
2023/09/26 02:45:14;;;;;;;2.83;1.60;;;17.20;44.80;;;;;;4975054;28;20242;-53
2023/09/26 02:47:40;;;;;;;2.22;1.50;;;17.20;44.80;;;;;;4974914;28;20195;-52
2023/09/26 02:50:07;;;;;;;2.40;1.87;;;17.10;44.80;;;;;;4974849;28;20180;-51
2023/09/26 02:52:33;;;;;;;2.25;1.77;;;17.10;45.00;;;;;;4974355;28;20840;-54
2023/09/26 02:55:00;;;;;;;2.33;1.80;;;17.10;44.90;;;;;;4974729;28;20176;-52
2023/09/26 02:57:26;;;;;;;3.50;1.92;;;17.20;44.80;;;;;;4974644;28;20213;-52
2023/09/26 02:59:52;;;;;;;1.90;1.37;;;17.20;44.80;;;;;;4974834;28;20207;-55
2023/09/26 03:02:17;;;;;;;2.40;2.20;;;17.20;44.70;;;;;;4973282;28;20654;-55
2023/09/26 03:04:49;;;;;;;2.70;2.23;;;17.20;44.70;;;;;;4974601;28;20407;-53
2023/09/26 03:07:15;;;;;;;3.70;2.60;;;17.20;44.80;;;;;;4974271;28;20223;-55
2023/09/26 03:09:41;;;;;;;2.25;1.95;;;17.10;44.80;;;;;;4974582;28;20184;-54
2023/09/26 03:12:07;;;;;;;1.80;1.47;;;17.10;44.80;;;;;;4974195;28;20561;-50
2023/09/26 03:14:33;;;;;;;2.33;1.97;;;17.10;45.00;;;;;;4974552;28;20499;-55
2023/09/26 03:16:59;;;;;;;2.30;1.80;;;17.10;45.00;;;;;;4974444;28;20200;-53
2023/09/26 03:19:25;;;;;;;1.90;1.60;;;17.10;45.00;;;;;;4974317;28;20178;-56
2023/09/26 03:21:51;;;;;;;4.28;2.20;;;17.10;44.90;;;;;;4973891;28;20179;-53
2023/09/26 03:24:19;;;;;;;10.40;2.03;;;17.10;45.10;;;;;;4974229;28;20180;-52
2023/09/26 03:26:45;;;;;;;2.22;2.03;;;17.00;44.80;;;;;;4973916;28;20662;-53
2023/09/26 03:29:11;;;;;;;2.58;1.63;;;17.00;44.70;;;;;;4974196;28;20187;-50
2023/09/26 03:31:41;;;;;;;3.20;2.70;;;17.00;44.70;;;;;;4973981;28;20397;-53
2023/09/26 03:34:08;;;;;;;2.97;2.00;;;17.00;44.70;;;;;;4974040;28;20406;-55
2023/09/26 03:36:36;;;;;;;1.90;1.42;;;17.00;44.70;;;;;;4973858;28;20215;-48
2023/09/26 03:39:03;;;;;;;2.40;2.00;;;17.00;44.70;;;;;;4974123;28;20164;-49
2023/09/26 03:41:30;;;;;;;2.35;2.00;;;17.00;44.70;;;;;;4974007;28;20606;-51
2023/09/26 03:43:56;;;;;;;1.65;1.55;;;16.90;44.90;;;;;;4973795;28;20187;-52
2023/09/26 03:46:21;;;;;;;3.33;2.20;;;17.00;44.70;;;;;;4973827;28;20675;-52
2023/09/26 03:48:49;;;;;;;6.67;2.70;;;17.00;44.70;;;;;;4973590;28;20204;-49
2023/09/26 03:51:14;;;;;;;3.78;2.20;;;16.90;45.00;;;;;;4973707;28;20617;-51
2023/09/26 03:53:42;;;;;;;5.20;2.87;;;16.90;44.90;;;;;;4973486;28;20214;-51
2023/09/26 03:56:08;;;;;;;3.45;2.58;;;16.90;45.10;;;;;;4973646;28;20443;-50
2023/09/26 03:58:34;;;;;;;4.90;2.97;;;16.90;45.20;;;;;;4973655;28;20196;-53
2023/09/26 04:01:27;;;;;;;2.97;2.15;;;16.90;45.40;;;;;;4973701;28;20180;-49
2023/09/26 04:03:53;;;;;;;3.80;1.70;;;16.90;45.20;;;;;;4969545;28;20651;-49
2023/09/26 04:06:19;;;;;;;1.97;1.77;;;16.80;45.30;;;;;;4973714;28;20242;-52
2023/09/26 04:08:45;;;;;;;3.47;2.23;;;16.90;45.30;;;;;;4973400;28;20481;-52
2023/09/26 04:11:17;;;;;;;1.92;1.45;;;16.80;45.20;;;;;;4973342;28;20458;-47
2023/09/26 04:13:44;;;;;;;2.17;1.98;;;16.80;45.10;;;;;;4973406;28;20192;-50
2023/09/26 04:16:10;;;;;;;2.35;1.90;;;16.80;45.10;;;;;;4973447;28;20168;-48
2023/09/26 04:18:36;;;;;;;2.73;2.50;;;16.80;44.90;;;;;;4973381;28;20195;-49
2023/09/26 04:21:03;;;;;;;3.83;2.45;;;16.80;44.90;;;;;;4973381;28;20419;-51
2023/09/26 04:23:29;;;;;;;2.40;1.70;;;16.80;44.90;;;;;;4973268;28;20210;-51
2023/09/26 04:25:55;;;;;;;3.00;2.50;;;16.80;44.90;;;;;;4973162;28;20602;-51
2023/09/26 04:28:21;;;;;;;3.97;2.13;;;16.80;44.70;;;;;;4973178;28;20526;-51
2023/09/26 04:30:46;;;;;;;2.70;2.00;;;16.90;44.80;;;;;;4971801;28;20210;-53
2023/09/26 04:33:12;;;;;;;2.30;1.43;;;16.80;44.60;;;;;;4973223;28;20195;-47
2023/09/26 04:35:38;;;;;;;4.87;1.93;;;16.80;44.70;;;;;;4973295;28;20230;-50
2023/09/26 04:38:04;;;;;;;3.30;2.23;;;16.90;44.70;;;;;;4973155;28;20529;-50
2023/09/26 04:40:30;;;;;;;3.58;2.70;;;16.70;44.70;;;;;;4971847;28;20173;-49
2023/09/26 04:43:03;;;;;;;2.75;2.15;;;16.70;44.60;;;;;;4972848;28;20179;-50
2023/09/26 04:45:33;;;;;;;5.65;2.20;;;16.70;44.60;;;;;;4977142;28;20586;-51
2023/09/26 04:48:02;;;;;;;1.98;1.67;;;16.70;44.60;;;;;;4977079;28;20702;-52
2023/09/26 04:50:29;;;;;;;4.45;2.47;;;16.70;44.70;;;;;;4976835;28;20180;-48
2023/09/26 04:52:56;;;;;;;1.70;1.60;;;16.70;44.80;;;;;;4976903;28;20172;-49
2023/09/26 04:55:22;;;;;;;3.35;1.50;;;16.70;44.90;;;;;;4976987;28;20180;-53
2023/09/26 04:57:48;;;;;;;2.33;1.27;;;16.70;44.80;;;;;;4977017;28;20777;-50
2023/09/26 05:00:17;;;;;;;3.20;2.10;;;16.70;44.80;;;;;;4977020;28;20175;-50
2023/09/26 05:02:44;;;;;;;2.38;1.75;;;16.70;44.80;;;;;;4976764;28;20192;-53
2023/09/26 05:05:11;;;;;;;3.88;2.50;;;16.70;44.70;;;;;;4976905;28;20175;-49
2023/09/26 05:07:37;;;;;;;2.22;1.85;;;16.70;44.90;;;;;;4976819;28;20207;-51
2023/09/26 05:10:03;;;;;;;2.63;2.07;;;16.70;45.10;;;;;;4975376;28;20187;-54
2023/09/26 05:12:29;;;;;;;3.97;2.83;;;16.70;45.20;;;;;;4976403;28;20461;-49
2023/09/26 05:14:56;;;;;;;4.28;2.83;;;16.70;45.10;;;;;;4975369;28;20172;-52
2023/09/26 05:17:24;;;;;;;3.47;2.53;;;16.70;45.30;;;;;;4976578;28;20198;-56
2023/09/26 05:19:51;;;;;;;3.00;1.98;;;16.80;45.30;;;;;;4976535;28;20188;-54
2023/09/26 05:22:17;;;;;;;2.75;2.55;;;16.80;45.40;;;;;;4976393;28;20178;-54
2023/09/26 05:24:43;;;;;;;1.45;1.35;;;16.80;45.30;;;;;;4976356;28;20188;-53
2023/09/26 05:27:09;;;;;;;4.17;3.03;;;16.80;45.20;;;;;;4976419;28;20773;-53
2023/09/26 05:29:35;;;;;;;4.77;3.13;;;16.90;45.60;;;;;;4976600;28;20415;-53
2023/09/26 05:32:01;;;;;;;2.92;1.92;;;16.90;45.70;;;;;;4976115;28;20462;-55
2023/09/26 05:34:28;;;;;;;2.97;2.10;;;16.90;45.80;;;;;;4975293;28;20180;-53
2023/09/26 05:36:54;;;;;;;4.07;1.98;;;17.00;46.00;;;;;;4976444;28;21846;-52
2023/09/26 05:39:20;;;;;;;3.00;2.70;;;17.00;45.90;;;;;;4975090;28;20187;-51
2023/09/26 05:41:45;;;;;;;2.40;2.03;;;17.00;46.00;;;;;;4976068;28;20182;-53
2023/09/26 05:44:12;;;;;;;4.37;2.70;;;17.10;46.20;;;;;;4976088;28;20842;-53
2023/09/26 05:46:38;;;;;;;3.75;2.22;;;17.20;46.20;;;;;;4976243;28;20230;-51
2023/09/26 05:49:03;;;;;;;5.93;2.70;;;17.20;46.80;;;;;;4976045;28;20275;-55
2023/09/26 05:51:29;;;;;;;3.00;2.27;;;17.30;45.90;;;;;;4975919;28;20281;-52
2023/09/26 05:53:55;;;;;;;2.83;2.63;;;17.40;45.90;;;;;;4975888;28;20576;-56
2023/09/26 05:56:21;;;;;;;7.37;2.03;;;17.40;45.90;;;;;;4974954;28;20172;-56
2023/09/26 05:58:49;;;;;;;3.53;2.10;;;17.50;46.20;;;;;;4975949;28;20184;-53
2023/09/26 06:01:15;;;;;;;4.40;2.65;;;17.60;46.30;;;;;;4976098;28;20278;-55
2023/09/26 06:03:40;;;;;;;2.00;1.73;;;17.70;46.30;;;;;;4975727;28;20671;-53
2023/09/26 06:06:06;;;;;;;2.63;2.43;;;17.70;46.40;;;;;;4975783;28;20407;-53
2023/09/26 06:08:34;;;;;;;2.27;1.37;;;17.80;46.30;;;;;;4975547;28;20434;-54
2023/09/26 06:11:00;;;;;;;3.80;3.03;;;17.80;46.30;;;;;;4975434;28;20246;-53
2023/09/26 06:13:26;;;;;;;2.92;1.80;;;17.90;46.60;;;;;;4975464;28;20687;-56
2023/09/26 06:15:52;;;;;;;1.90;1.53;;;17.90;46.60;;;;;;4975680;28;20176;-54
2023/09/26 06:18:17;;;;;;;3.17;2.07;;;17.90;46.60;;;;;;4975570;28;20478;-53
2023/09/26 06:20:44;;;;;;;3.77;2.10;;;18.00;46.80;;;;;;4975344;28;20164;-55
2023/09/26 06:23:10;;;;;;;2.88;2.38;;;18.00;46.80;;;;;;4975209;28;20255;-53
2023/09/26 06:25:36;;;;;;;3.10;2.03;;;18.10;46.80;;;;;;4975558;28;20268;-52
2023/09/26 06:28:02;;;;;;;1.90;1.67;;;18.20;46.80;;;;;;4975323;28;20446;-56
2023/09/26 06:30:28;;;;;;;3.58;1.92;;;18.30;46.60;;;;;;4975356;28;20184;-52
2023/09/26 06:32:54;;;;;;;2.40;1.90;;;18.40;46.30;;;;;;4975106;28;20559;-55
2023/09/26 06:35:20;;;;;;;2.30;1.97;;;18.50;46.40;;;;;;4975156;28;20442;-53
2023/09/26 06:37:46;;;;;;;3.20;2.43;;;18.70;46.40;;;;;;4974839;28;20447;-56
2023/09/26 06:40:12;;;;;;;5.27;2.60;;;18.80;46.40;;;;;;4975000;28;20407;-56
2023/09/26 06:42:38;;;;;;;2.57;1.93;;;18.90;46.70;;;;;;4974851;28;20558;-52
2023/09/26 06:45:04;;;;;;;2.63;2.43;;;19.00;46.40;;;;;;4975148;28;20180;-53
2023/09/26 06:47:32;;;;;;;3.15;2.72;;;19.10;46.60;;;;;;4974826;28;20481;-54
2023/09/26 06:49:58;;;;;;;6.50;2.25;;;19.20;46.30;;;;;;4974860;28;20245;-53
2023/09/26 06:52:24;;;;;;;3.53;2.50;;;19.30;46.20;;;;;;4974544;28;20235;-52
2023/09/26 06:54:51;;;;;;;5.03;2.85;;;19.40;46.60;;;;;;4975011;28;20180;-55
2023/09/26 06:57:20;;;;;;;3.67;2.10;;;19.40;46.50;;;;;;4974687;28;20298;-54
2023/09/26 06:59:49;;;;;;;6.97;3.63;;;19.60;46.50;;;;;;4974839;28;20187;-53
2023/09/26 07:02:16;;;;;;;4.70;3.50;;;19.60;46.60;;;;;;4974547;28;20183;-55
2023/09/26 07:04:42;;;;;;;4.15;3.08;;;19.80;46.90;;;;;;4974610;28;20997;-54
2023/09/26 07:07:08;;;;;;;4.05;2.72;;;19.80;46.80;;;;;;4974138;28;20601;-54
2023/09/26 07:09:34;;;;;;;5.10;3.57;;;19.90;46.80;;;;;;4974708;28;20182;-56
2023/09/26 07:12:00;;;;;;;3.40;3.10;;;20.00;46.60;;;;;;4974424;28;20262;-53
2023/09/26 07:14:31;;;;;;;5.20;2.63;;;20.10;46.90;;;;;;4973190;28;20516;-53
2023/09/26 07:16:56;;;;;;;4.07;2.67;;;20.20;46.90;;;;;;4974418;28;20434;-56
2023/09/26 07:19:22;;;;;;;3.63;3.00;;;20.40;46.90;;;;;;4974214;28;20176;-54
2023/09/26 07:21:48;;;;;;;4.73;2.60;;;20.50;46.90;;;;;;4974365;28;20203;-53
2023/09/26 07:24:14;;;;;;;6.07;3.57;;;20.60;47.00;;;;;;4974362;28;20596;-56
2023/09/26 07:26:40;;;;;;;3.57;2.30;;;20.80;47.30;;;;;;4974098;28;20577;-53
2023/09/26 07:29:08;;;;;;;2.83;2.25;;;20.90;47.70;;;;;;4972953;28;20666;-52
2023/09/26 07:31:35;;;;;;;4.90;3.13;;;21.10;47.30;;;;;;4973944;28;20737;-52
2023/09/26 07:34:01;;;;;;;4.70;2.25;;;21.20;47.50;;;;;;4973837;28;20208;-55
2023/09/26 07:36:26;;;;;;;2.90;2.57;;;21.20;47.30;;;;;;4974002;28;20211;-53
2023/09/26 07:38:52;;;;;;;5.03;2.67;;;21.30;47.30;;;;;;4974065;28;20247;-53
2023/09/26 07:41:18;;;;;;;3.03;2.83;;;21.40;47.60;;;;;;4974003;28;20187;-55
2023/09/26 07:43:44;;;;;;;5.93;3.77;;;21.50;47.60;;;;;;4973651;28;20175;-55
2023/09/26 07:46:10;;;;;;;2.53;2.00;;;21.70;47.60;;;;;;4973801;28;20172;-52
2023/09/26 07:48:37;;;;;;;6.45;4.30;;;21.80;47.40;;;;;;4973611;28;20603;-54
2023/09/26 07:51:05;;;;;;;4.80;3.03;;;22.00;47.50;;;;;;4973706;28;20570;-54
2023/09/26 07:53:31;;;;;;;4.77;3.33;;;22.10;47.40;;;;;;4973758;28;20403;-53
2023/09/26 07:55:58;;;;;;;4.13;2.53;;;22.20;47.10;;;;;;4973872;28;20473;-56
2023/09/26 07:58:24;;;;;;;4.80;3.10;;;22.30;47.30;;;;;;4973612;28;20196;-56
2023/09/26 08:00:52;;;;;;;5.43;2.67;;;22.40;47.70;;;;;;4973638;28;20399;-54
2023/09/26 08:03:18;;;;;;;3.10;2.30;;;22.50;47.70;;;;;;4973489;28;20410;-56
2023/09/26 08:05:44;;;;;;;3.93;3.10;;;22.50;47.80;;;;;;4973556;28;20407;-55
2023/09/26 08:08:10;;;;;;;7.53;3.70;;;22.50;47.80;;;;;;4973676;28;20196;-52
2023/09/26 08:10:39;;;;;;;3.30;2.27;;;22.70;48.20;;;;;;4973496;28;20773;-56
2023/09/26 08:13:06;;;;;;;7.70;2.43;;;22.80;48.20;;;;;;4973331;28;20172;-56
2023/09/26 08:15:34;;;;;;;6.10;4.60;;;22.90;48.10;;;;;;4973275;28;20839;-51
2023/09/26 08:18:03;;;;;;;8.80;3.53;;;23.10;48.00;;;;;;4972634;28;20496;-56
2023/09/26 08:20:29;;;;;;;4.40;3.13;;;23.20;48.00;;;;;;4973562;28;20415;-54
2023/09/26 08:22:54;;;;;;;6.20;3.50;;;23.30;47.80;;;;;;4973109;28;20410;-54
2023/09/26 08:25:20;;;;;;;6.93;4.07;;;23.30;47.70;;;;;;4973222;28;20458;-56
2023/09/26 08:27:46;;;;;;;4.40;3.50;;;23.40;47.60;;;;;;4973217;28;20242;-55
2023/09/26 08:30:12;;;;;;;3.60;2.70;;;23.60;47.60;;;;;;4973146;28;20187;-54
2023/09/26 08:32:39;;;;;;;5.93;3.50;;;23.60;47.50;;;;;;4973153;28;20234;-57
2023/09/26 08:35:06;;;;;;;3.30;2.10;;;23.70;46.80;;;;;;4971982;28;20416;-56
2023/09/26 08:37:37;;;;;;;3.90;3.50;;;23.80;47.00;;;;;;4973073;28;20511;-53
2023/09/26 08:40:09;;;;;;;4.00;2.77;;;23.90;46.80;;;;;;4971883;28;20412;-55
2023/09/26 08:42:38;;;;;;;3.70;2.20;;;23.90;47.10;;;;;;4972801;28;20932;-54
2023/09/26 08:45:05;;;;;;;4.17;2.40;;;24.00;46.70;;;;;;4973305;28;20442;-54
2023/09/26 08:47:33;;;;;;;3.83;2.30;;;24.10;46.50;;;;;;4973169;28;20446;-56
2023/09/26 08:49:59;;;;;;;5.27;3.60;;;24.20;46.50;;;;;;4972980;28;20424;-54
2023/09/26 08:52:25;;;;;;;3.57;3.00;;;24.30;46.40;;;;;;4972551;28;20462;-53
2023/09/26 08:54:51;;;;;;;3.57;2.17;;;24.40;46.40;;;;;;4972996;28;20499;-56
2023/09/26 08:57:18;;;;;;;2.00;1.57;;;24.50;46.40;;;;;;4972849;28;20515;-53
2023/09/26 08:59:48;;;;;;;4.07;3.23;;;24.50;46.30;;;;;;4972938;28;20406;-57
2023/09/26 09:02:14;;;;;;;10.47;3.83;;;24.60;46.30;;;;;;4972723;28;20418;-54
2023/09/26 09:04:44;;;;;;;4.10;2.70;;;24.70;45.80;;;;;;4972992;28;20440;-54
2023/09/26 09:07:13;;;;;;;18.83;3.10;;;24.80;46.00;;;;;;4972815;28;20428;-56
2023/09/26 09:10:10;;;;;;;2.57;2.30;;;24.90;45.40;;;;;;4972712;28;20941;-54
2023/09/26 09:12:37;;;;;;;2.30;1.63;;;24.90;45.10;;;;;;4972610;28;20965;-54
2023/09/26 09:15:18;;;;;;;4.03;2.30;;;25.00;44.70;;;;;;4972848;28;20412;-53
2023/09/26 09:17:49;;;;;;;5.60;3.57;;;25.00;45.30;;;;;;4972921;28;21045;-57
2023/09/26 09:20:33;;;;;;;3.30;2.57;;;25.10;45.20;;;;;;4972758;28;20410;-56
2023/09/26 09:23:04;;;;;;;3.53;2.40;;;25.20;45.10;;;;;;4972601;28;20509;-54
2023/09/26 09:25:34;;;;;;;5.90;2.90;;;25.30;45.00;;;;;;4972686;28;20411;-56
2023/09/26 09:28:01;;;;;;;4.80;2.60;;;25.50;44.30;;;;;;4972607;28;20513;-56
2023/09/26 09:30:26;;;;;;;4.87;3.37;;;25.60;43.50;;;;;;4974867;28;20411;-55
2023/09/26 09:32:52;;;;;;;7.40;3.10;;;25.70;44.20;;;;;;4975980;28;20995;-57
2023/09/26 09:35:18;;;;;;;3.07;2.77;;;25.80;44.00;;;;;;4976181;28;20411;-54
2023/09/26 09:37:46;;;;;;;4.00;2.77;;;25.80;43.40;;;;;;4976103;28;20238;-54
2023/09/26 09:40:19;;;;;;;3.63;2.47;;;25.90;43.00;;;;;;4976235;28;20481;-56
2023/09/26 09:42:50;;;;;;;3.80;2.50;;;25.90;42.50;;;;;;4975976;28;20469;-54
2023/09/26 09:45:17;;;;;;;3.90;2.63;;;25.90;42.40;;;;;;4976090;28;20506;-54
2023/09/26 09:47:48;;;;;;;3.43;1.53;;;25.90;42.10;;;;;;4976135;28;20469;-56
2023/09/26 09:50:15;;;;;;;2.60;2.20;;;25.90;42.50;;;;;;4976044;28;20411;-54
2023/09/26 09:52:43;;;;;;;4.87;2.80;;;25.90;42.20;;;;;;4975773;28;20477;-56
2023/09/26 09:55:16;;;;;;;3.83;1.60;;;26.00;42.70;;;;;;4975876;28;20837;-55
2023/09/26 09:57:46;;;;;;;3.73;2.83;;;26.10;42.70;;;;;;4975807;28;20423;-53
2023/09/26 10:00:14;;;;;;;4.60;3.13;;;26.10;42.40;;;;;;4976001;28;20830;-55
2023/09/26 10:02:40;;;;;;;4.20;2.67;;;26.10;42.00;;;;;;4975564;28;20440;-55
2023/09/26 10:05:12;;;;;;;13.97;3.50;;;26.00;41.80;;;;;;4975734;28;20829;-56
2023/09/26 10:07:40;;;;;;;4.23;3.20;;;26.00;42.30;;;;;;4975672;28;20456;-55
2023/09/26 10:10:09;;;;;;;3.50;2.60;;;26.00;42.10;;;;;;4975372;28;20411;-54
2023/09/26 10:12:39;;;;;;;4.50;2.37;;;26.10;42.30;;;;;;4975238;28;20465;-55
2023/09/26 10:15:11;;;;;;;4.67;2.73;;;26.10;41.90;;;;;;4975557;28;20404;-55
2023/09/26 10:17:39;;;;;;;4.00;2.67;;;26.00;42.00;;;;;;4975362;28;20805;-57
2023/09/26 10:20:10;;;;;;;3.50;2.30;;;26.10;42.30;;;;;;4975419;28;20408;-57
2023/09/26 10:22:41;;;;;;;3.30;2.50;;;26.10;42.50;;;;;;4975166;28;20925;-53
2023/09/26 10:25:08;;;;;;;3.30;2.33;;;26.20;41.90;;;;;;4975588;28;20420;-54
2023/09/26 10:27:34;;;;;;;5.33;2.83;;;26.20;41.50;;;;;;4975062;28;20514;-55
2023/09/26 10:30:03;;;;;;;5.10;3.17;;;26.20;42.10;;;;;;4975339;28;20403;-53
2023/09/26 10:32:34;;;;;;;4.53;2.70;;;26.30;42.20;;;;;;4973725;28;20218;-56
2023/09/26 10:35:22;;;;;;;3.70;1.93;;;26.40;42.20;;;;;;4975145;28;20414;-53
2023/09/26 10:37:52;;;;;;;3.20;2.50;;;26.50;41.40;;;;;;4975013;28;20518;-55
2023/09/26 10:40:18;;;;;;;4.60;3.23;;;26.60;41.10;;;;;;4975046;28;21112;-54
2023/09/26 10:42:47;;;;;;;3.03;2.43;;;26.60;41.00;;;;;;4974080;28;21002;-51
2023/09/26 10:45:13;;;;;;;5.93;3.27;;;26.70;41.20;;;;;;4975119;28;20502;-56
2023/09/26 10:47:40;;;;;;;3.47;2.40;;;26.80;41.70;;;;;;4974764;28;20439;-54
2023/09/26 10:50:14;;;;;;;5.50;2.10;;;27.00;42.30;;;;;;4974805;28;20422;-55
2023/09/26 10:52:47;;;;;;;4.10;2.13;;;27.20;41.10;;;;;;4974583;28;20981;-55
2023/09/26 10:55:20;;;;;;;3.70;2.20;;;27.30;40.00;;;;;;4974808;28;20902;-55
2023/09/26 10:57:49;;;;;;;4.23;2.00;;;27.30;38.60;;;;;;4974663;28;20495;-52
2023/09/26 11:00:15;;;;;;;4.50;2.90;;;27.30;39.40;;;;;;4974526;28;20419;-56
2023/09/26 11:02:43;;;;;;;3.57;3.00;;;27.40;38.70;;;;;;4974450;28;20501;-54
2023/09/26 11:05:13;;;;;;;2.77;2.20;;;27.30;39.00;;;;;;4974568;28;20407;-55
2023/09/26 11:07:41;;;;;;;2.93;2.13;;;27.40;38.70;;;;;;4974548;28;20427;-54
2023/09/26 11:10:12;;;;;;;3.00;2.37;;;27.50;39.10;;;;;;4974519;28;20422;-53
2023/09/26 11:12:38;;;;;;;4.10;2.90;;;27.60;37.80;;;;;;4974166;28;20458;-55
2023/09/26 11:15:04;;;;;;;2.50;1.97;;;27.70;36.70;;;;;;4974656;28;20767;-55
2023/09/26 11:17:32;;;;;;;4.37;2.97;;;27.70;37.40;;;;;;4974343;28;20940;-55
2023/09/26 11:20:05;;;;;;;2.37;1.57;;;27.90;36.80;;;;;;4974311;28;20414;-56
2023/09/26 11:22:42;;;;;;;2.73;1.30;;;27.90;36.80;;;;;;4974239;28;20415;-56
2023/09/26 11:25:08;;;;;;;1.80;1.50;;;27.90;37.40;;;;;;4974179;28;20407;-55
2023/09/26 11:28:01;;;;;;;6.90;3.33;;;27.90;37.20;;;;;;4972875;28;20869;-54
2023/09/26 11:30:27;;;;;;;3.87;2.40;;;28.00;37.80;;;;;;4972174;28;20423;-54
2023/09/26 11:32:54;;;;;;;4.70;2.60;;;28.20;37.30;;;;;;4973845;28;20456;-56
2023/09/26 11:35:22;;;;;;;2.87;2.10;;;28.30;36.70;;;;;;4974123;28;20418;-54
2023/09/26 11:37:52;;;;;;;2.80;2.27;;;28.30;36.70;;;;;;4973980;28;20458;-54
2023/09/26 11:40:28;;;;;;;3.10;2.40;;;28.40;36.40;;;;;;4973976;28;20930;-57
2023/09/26 11:42:58;;;;;;;2.20;2.00;;;28.40;36.30;;;;;;4973904;28;20433;-55
2023/09/26 11:45:26;;;;;;;5.83;2.47;;;28.50;35.40;;;;;;4973961;28;20419;-56
2023/09/26 11:47:58;;;;;;;5.17;3.57;;;28.50;35.30;;;;;;4973837;28;20431;-53
2023/09/26 11:50:25;;;;;;;6.73;2.30;;;28.50;36.00;;;;;;4973885;28;20434;-57
2023/09/26 11:52:51;;;;;;;2.93;1.87;;;28.50;35.60;;;;;;4973545;28;20521;-59
2023/09/26 11:55:20;;;;;;;2.47;1.93;;;28.50;35.60;;;;;;4973838;28;20494;-55
2023/09/26 11:57:49;;;;;;;5.23;2.60;;;28.60;35.60;;;;;;4973577;28;20446;-57
2023/09/26 12:00:18;;;;;;;2.57;2.07;;;28.70;35.90;;;;;;4973368;28;20423;-55
2023/09/26 12:02:46;;;;;;;2.10;1.43;;;28.70;34.80;;;;;;4973041;28;20561;-54
2023/09/26 12:05:13;;;;;;;2.53;1.63;;;28.70;35.70;;;;;;4973753;28;20470;-55
2023/09/26 12:07:40;;;;;;;4.97;1.43;;;28.80;35.70;;;;;;4973613;28;20782;-57
2023/09/26 12:10:07;;;;;;;4.50;2.43;;;28.80;35.10;;;;;;4973377;28;20411;-52
2023/09/26 12:12:33;;;;;;;2.60;2.10;;;28.90;34.70;;;;;;4973235;28;20459;-55
2023/09/26 12:15:34;;;;;;;4.43;2.63;;;28.70;35.20;;;;;;4973472;28;20462;-57
2023/09/26 12:18:00;;;;;;;2.70;2.50;;;28.80;34.90;;;;;;4932643;29;20196;-54
2023/09/26 12:20:26;;;;;;;3.70;2.80;;;28.80;35.70;;;;;;4932542;29;20824;-55
2023/09/26 12:22:56;;;;;;;2.23;1.90;;;28.80;34.90;;;;;;4932441;29;20561;-53
2023/09/26 12:25:25;;;;;;;3.40;2.00;;;28.90;35.70;;;;;;4932382;29;20212;-56
2023/09/26 12:27:52;;;;;;;2.87;1.90;;;29.00;35.60;;;;;;4932611;29;20473;-55
2023/09/26 12:30:21;;;;;;;3.50;2.13;;;29.10;35.30;;;;;;4916617;29;20432;-53
2023/09/26 12:32:47;;;;;;;2.03;1.80;;;29.10;35.60;;;;;;4932232;29;20464;-56
2023/09/26 12:35:13;;;;;;;4.93;2.90;;;29.20;34.60;;;;;;4932555;29;20501;-54
2023/09/26 12:37:40;;;;;;;10.80;2.20;;;29.30;34.20;;;;;;4932383;29;20517;-56
2023/09/26 12:40:09;;;;;;;3.13;2.00;;;29.30;34.50;;;;;;4932255;29;20214;-54
2023/09/26 12:42:36;;;;;;;4.47;2.50;;;29.40;33.10;;;;;;4932146;29;20520;-57
2023/09/26 12:45:02;;;;;;;2.53;1.63;;;29.40;34.10;;;;;;4932392;29;20504;-54
2023/09/26 12:47:28;;;;;;;2.90;2.10;;;29.50;34.00;;;;;;4932251;29;20868;-57